createdAt,value
2023-03-01T00:01:16.087Z,-4.82
2023-03-01T00:03:42.823Z,-4.78
2023-03-01T00:06:10.073Z,-4.75
2023-03-01T00:08:36.929Z,-4.71
2023-03-01T00:11:13.786Z,-4.67
2023-03-01T00:13:41.247Z,-4.67
2023-03-01T00:16:13.385Z,-4.69
2023-03-01T00:18:40.107Z,-4.70
2023-03-01T00:21:07.283Z,-4.71
2023-03-01T00:23:35.046Z,-4.71
2023-03-01T00:26:02.058Z,-4.71
2023-03-01T00:28:29.541Z,-4.72
2023-03-01T00:30:56.306Z,-4.74
2023-03-01T00:33:23.539Z,-4.75
2023-03-01T00:35:50.578Z,-4.73
2023-03-01T00:38:17.349Z,-4.72
2023-03-01T00:40:47.538Z,-4.70
2023-03-01T00:43:19.497Z,-4.66
2023-03-01T00:45:46.228Z,-4.62
2023-03-01T00:48:13.405Z,-4.59
2023-03-01T00:50:40.259Z,-4.57
2023-03-01T00:53:06.946Z,-4.56
2023-03-01T00:55:33.629Z,-4.56
2023-03-01T00:58:00.611Z,-4.57
2023-03-01T01:00:28.198Z,-4.58
2023-03-01T01:02:55.406Z,-4.59
2023-03-01T01:05:22.202Z,-4.58
2023-03-01T01:07:52.133Z,-4.59
2023-03-01T01:10:19.221Z,-4.59
2023-03-01T01:12:50.939Z,-4.58
2023-03-01T01:15:17.998Z,-4.59
2023-03-01T01:17:44.890Z,-4.59
2023-03-01T01:20:17.873Z,-4.59
2023-03-01T01:22:45.934Z,-4.58
2023-03-01T01:25:12.608Z,-4.59
2023-03-01T01:27:39.728Z,-4.58
2023-03-01T01:30:07.525Z,-4.58
2023-03-01T01:32:35.561Z,-4.57
2023-03-01T01:35:02.552Z,-4.57
2023-03-01T01:37:31.626Z,-4.57
2023-03-01T01:39:59.675Z,-4.56
2023-03-01T01:42:26.751Z,-4.57
2023-03-01T01:45:32.212Z,-4.57
2023-03-01T01:48:03.437Z,-4.56
2023-03-01T01:50:38.263Z,-4.56
2023-03-01T01:53:10.635Z,-4.56
2023-03-01T01:55:38.057Z,-4.56
2023-03-01T01:58:06.053Z,-4.56
2023-03-01T02:00:33.351Z,-4.55
2023-03-01T02:03:02.742Z,-4.53
2023-03-01T02:05:37.423Z,-4.53
2023-03-01T02:08:04.251Z,-4.52
2023-03-01T02:10:33.738Z,-4.51
2023-03-01T02:13:01.219Z,-4.51
2023-03-01T02:15:32.369Z,-4.51
2023-03-01T02:17:59.385Z,-4.50
2023-03-01T02:20:38.461Z,-4.50
2023-03-01T02:23:06.282Z,-4.50
2023-03-01T02:25:36.811Z,-4.49
2023-03-01T02:28:16.736Z,-4.50
2023-03-01T02:31:03.992Z,-4.50
2023-03-01T02:33:36.500Z,-4.51
2023-03-01T02:36:23.383Z,-4.53
2023-03-01T02:38:51.804Z,-4.53
2023-03-01T02:41:18.618Z,-4.53
2023-03-01T02:43:45.419Z,-4.54
2023-03-01T02:46:24.270Z,-4.55
2023-03-01T02:48:53.574Z,-4.55
2023-03-01T02:51:26.600Z,-4.55
2023-03-01T02:54:15.041Z,-4.56
2023-03-01T02:56:41.876Z,-4.56
2023-03-01T02:59:09.238Z,-4.58
2023-03-01T03:01:37.555Z,-4.58
2023-03-01T03:04:07.439Z,-4.59
2023-03-01T03:06:35.347Z,-4.59
2023-03-01T03:09:03.440Z,-4.59
2023-03-01T03:11:33.252Z,-4.58
2023-03-01T03:14:00.155Z,-4.58
2023-03-01T03:16:27.221Z,-4.59
2023-03-01T03:19:05.375Z,-4.59
2023-03-01T03:21:33.315Z,-4.60
2023-03-01T03:24:00.105Z,-4.59
2023-03-01T03:26:26.822Z,-4.58
2023-03-01T03:28:53.591Z,-4.59
2023-03-01T03:31:20.538Z,-4.58
2023-03-01T03:33:48.267Z,-4.59
2023-03-01T03:36:22.274Z,-4.59
2023-03-01T03:38:49.467Z,-4.59
2023-03-01T03:41:16.907Z,-4.59
2023-03-01T03:43:44.200Z,-4.57
2023-03-01T03:46:11.344Z,-4.55
2023-03-01T03:48:45.586Z,-4.54
2023-03-01T03:51:17.210Z,-4.52
2023-03-01T03:53:44.572Z,-4.51
2023-03-01T03:56:11.814Z,-4.49
2023-03-01T03:58:40.711Z,-4.49
2023-03-01T04:01:07.668Z,-4.47
2023-03-01T04:03:35.516Z,-4.46
2023-03-01T04:06:02.912Z,-4.45
2023-03-01T04:08:29.682Z,-4.45
2023-03-01T04:11:26.902Z,-4.46
2023-03-01T04:13:58.870Z,-4.46
2023-03-01T04:16:25.626Z,-4.46
2023-03-01T04:18:53.918Z,-4.47
2023-03-01T04:21:20.791Z,-4.47
2023-03-01T04:23:47.487Z,-4.47
2023-03-01T04:26:15.154Z,-4.47
2023-03-01T04:28:45.525Z,-4.46
2023-03-01T04:31:14.609Z,-4.44
2023-03-01T04:33:43.350Z,-4.43
2023-03-01T04:36:10.515Z,-4.42
2023-03-01T04:38:40.376Z,-4.42
2023-03-01T04:41:08.564Z,-4.41
2023-03-01T04:43:36.093Z,-4.40
2023-03-01T04:46:15.462Z,-4.40
2023-03-01T04:48:47.584Z,-4.38
2023-03-01T04:51:14.806Z,-4.36
2023-03-01T04:53:42.025Z,-4.32
2023-03-01T04:56:09.153Z,-4.29
2023-03-01T04:58:35.832Z,-4.26
2023-03-01T05:01:15.292Z,-4.23
2023-03-01T05:03:49.472Z,-4.21
2023-03-01T05:06:17.340Z,-4.15
2023-03-01T05:08:44.428Z,-4.07
2023-03-01T05:11:15.328Z,-4.00
2023-03-01T05:13:42.103Z,-3.94
2023-03-01T05:16:11.479Z,-3.88
2023-03-01T05:18:40.038Z,-3.79
2023-03-01T05:21:11.514Z,-3.69
2023-03-01T05:23:39.033Z,-3.58
2023-03-01T05:26:07.531Z,-3.43
2023-03-01T05:28:34.576Z,-3.28
2023-03-01T05:31:01.502Z,-3.18
2023-03-01T05:33:28.483Z,-3.12
2023-03-01T05:35:55.196Z,-3.09
2023-03-01T05:38:22.930Z,-3.02
2023-03-01T05:40:51.899Z,-2.93
2023-03-01T05:43:18.746Z,-2.85
2023-03-01T05:45:50.782Z,-2.78
2023-03-01T05:56:14.941Z,-2.17
2023-03-01T05:58:43.853Z,-1.93
2023-03-01T06:01:16.549Z,-1.66
2023-03-01T06:03:43.120Z,-1.39
2023-03-01T06:06:10.383Z,-1.08
2023-03-01T06:08:37.178Z,-0.80
2023-03-01T06:11:05.700Z,-0.49
2023-03-01T06:13:33.113Z,-0.29
2023-03-01T06:16:01.821Z,-0.29
2023-03-01T06:18:30.860Z,-0.38
2023-03-01T06:20:57.752Z,-0.49
2023-03-01T06:23:24.684Z,-0.65
2023-03-01T06:25:51.446Z,-0.78
2023-03-01T06:28:20.054Z,-0.89
2023-03-01T06:30:46.883Z,-0.91
2023-03-01T06:33:15.051Z,-0.91
2023-03-01T06:35:42.307Z,-0.94
2023-03-01T06:38:09.784Z,-0.98
2023-03-01T06:40:36.876Z,-1.00
2023-03-01T06:43:03.643Z,-1.00
2023-03-01T06:45:31.522Z,-1.03
2023-03-01T06:48:03.849Z,-1.06
2023-03-01T06:50:30.803Z,-1.10
2023-03-01T06:52:57.911Z,-1.05
2023-03-01T06:55:24.674Z,-1.01
2023-03-01T06:57:58.771Z,-1.03
2023-03-01T07:00:26.425Z,-1.02
2023-03-01T07:02:54.059Z,-0.94
2023-03-01T07:05:21.102Z,-0.87
2023-03-01T07:07:47.952Z,-0.80
2023-03-01T07:10:16.050Z,-0.71
2023-03-01T07:12:42.796Z,-0.56
2023-03-01T07:15:11.268Z,-0.29
2023-03-01T07:17:38.440Z,0.19
2023-03-01T07:20:06.080Z,0.87
2023-03-01T07:22:33.340Z,1.67
2023-03-01T07:25:00.139Z,2.33
2023-03-01T07:27:27.002Z,2.76
2023-03-01T07:29:53.754Z,3.00
2023-03-01T07:32:21.317Z,3.03
2023-03-01T07:34:48.694Z,2.96
2023-03-01T07:37:15.651Z,2.89
2023-03-01T07:39:43.381Z,2.97
2023-03-01T07:42:10.492Z,3.16
2023-03-01T07:44:57.180Z,3.46
2023-03-01T07:47:26.600Z,3.77
2023-03-01T07:49:54.238Z,3.78
2023-03-01T07:52:21.078Z,3.39
2023-03-01T07:54:48.344Z,2.90
2023-03-01T07:57:15.440Z,2.65
2023-03-01T07:59:43.238Z,2.58
2023-03-01T08:02:11.132Z,2.53
2023-03-01T08:04:38.072Z,2.47
2023-03-01T08:07:06.165Z,2.38
2023-03-01T08:09:35.920Z,2.29
2023-03-01T08:12:08.480Z,2.14
2023-03-01T08:14:43.720Z,1.98
2023-03-01T08:17:11.330Z,1.86
2023-03-01T08:19:39.463Z,1.75
2023-03-01T08:22:06.785Z,1.66
2023-03-01T08:24:34.125Z,1.62
2023-03-01T08:27:04.188Z,1.58
2023-03-01T08:29:37.145Z,1.60
2023-03-01T08:32:05.070Z,1.65
2023-03-01T08:34:32.132Z,1.79
2023-03-01T08:36:59.315Z,1.91
2023-03-01T08:39:26.451Z,2.07
2023-03-01T08:41:53.661Z,2.22
2023-03-01T08:44:21.631Z,2.33
2023-03-01T08:46:50.656Z,2.56
2023-03-01T08:49:18.555Z,2.79
2023-03-01T08:51:45.572Z,3.02
2023-03-01T08:54:15.478Z,3.20
2023-03-01T08:56:44.172Z,3.37
2023-03-01T08:59:12.525Z,3.41
2023-03-01T09:01:40.625Z,3.49
2023-03-01T09:04:07.667Z,3.67
2023-03-01T09:06:36.306Z,3.93
2023-03-01T09:09:04.054Z,4.15
2023-03-01T09:11:30.783Z,4.35
2023-03-01T09:13:58.765Z,4.44
2023-03-01T09:16:30.487Z,4.59
2023-03-01T09:18:57.703Z,5.07
2023-03-01T09:21:39.492Z,5.75
2023-03-01T09:24:15.914Z,6.38
2023-03-01T09:26:46.946Z,6.94
2023-03-01T09:29:14.748Z,7.18
2023-03-01T09:31:42.990Z,7.29
2023-03-01T09:34:12.175Z,7.71
2023-03-01T09:36:39.297Z,7.80
2023-03-01T09:39:06.688Z,7.41
2023-03-01T09:42:00.125Z,6.94
2023-03-01T09:44:45.933Z,6.71
2023-03-01T09:47:27.672Z,6.45
2023-03-01T09:49:59.155Z,6.32
2023-03-01T09:52:41.781Z,6.36
2023-03-01T09:55:13.753Z,6.44
2023-03-01T09:57:41.184Z,6.48
2023-03-01T10:00:28.682Z,6.50
2023-03-01T10:03:02.554Z,6.24
2023-03-01T10:05:38.096Z,5.83
2023-03-01T10:08:42.038Z,5.59
2023-03-01T10:11:39.347Z,5.65
2023-03-01T10:14:31.362Z,5.58
2023-03-01T10:17:02.028Z,5.48
2023-03-01T10:19:45.161Z,5.44
2023-03-01T10:22:14.691Z,5.36
2023-03-01T10:24:44.012Z,5.20
2023-03-01T10:27:30.409Z,5.06
2023-03-01T10:30:07.195Z,4.93
2023-03-01T10:32:34.980Z,4.89
2023-03-01T10:35:14.192Z,4.92
2023-03-01T10:37:59.355Z,4.90
2023-03-01T10:40:26.098Z,4.90
2023-03-01T10:42:53.896Z,4.89
2023-03-01T10:45:30.077Z,4.95
2023-03-01T10:48:28.018Z,5.03
2023-03-01T10:51:00.754Z,5.03
2023-03-01T10:53:29.769Z,5.07
2023-03-01T10:56:05.033Z,5.16
2023-03-01T10:58:32.892Z,5.27
2023-03-01T11:01:02.148Z,5.25
2023-03-01T11:03:35.464Z,4.96
2023-03-01T11:06:20.978Z,4.66
2023-03-01T11:08:49.499Z,4.59
2023-03-01T11:11:20.988Z,4.63
2023-03-01T11:14:26.385Z,4.68
2023-03-01T11:17:01.352Z,4.55
2023-03-01T11:19:29.002Z,4.46
2023-03-01T11:22:04.178Z,4.40
2023-03-01T11:24:37.647Z,4.34
2023-03-01T11:27:19.046Z,4.43
2023-03-01T11:29:51.511Z,4.59
2023-03-01T11:32:18.948Z,4.72
2023-03-01T11:35:10.967Z,4.78
2023-03-01T11:37:50.010Z,4.85
2023-03-01T11:40:23.100Z,4.83
2023-03-01T11:42:52.912Z,4.73
2023-03-01T11:45:20.160Z,4.58
2023-03-01T11:48:03.876Z,4.39
2023-03-01T11:50:40.884Z,4.22
2023-03-01T11:53:16.732Z,4.04
2023-03-01T11:56:02.623Z,3.82
2023-03-01T11:58:59.198Z,3.61
2023-03-01T12:01:45.121Z,3.41
2023-03-01T12:04:45.815Z,3.28
2023-03-01T12:07:20.875Z,3.25
